Time;durP1;ratioP1;P1;durP2;ratioP2;P2;SDS_P1;SDS_P2;PMS_P1;PMS_P2;Temp;Humidity;BMP_temperature;BMP_pressure;BME280_temperature;BME280_humidity;BME280_pressure;Samples;Min_cycle;Max_cycle;Signal;HPM_P1;HPM_P2
2023/06/13 00:01:22;;;;;;;6.28;4.40;;;;;;;17.73;100.00;94344.50;5022206;28;20176;-85
2023/06/13 00:03:49;;;;;;;10.10;5.15;;;;;;;17.73;99.03;94351.41;5033962;28;20760;-85
2023/06/13 00:06:15;;;;;;;8.95;4.50;;;;;;;17.80;99.21;94356.47;5048940;28;20210;-85
2023/06/13 00:08:42;;;;;;;7.40;4.78;;;;;;;17.51;99.11;94310.94;5032306;28;20179;-85
2023/06/13 00:11:07;;;;;;;6.28;4.53;;;;;;;17.66;98.15;94334.91;5033494;28;20227;-85
2023/06/13 00:13:34;;;;;;;7.70;4.88;;;;;;;17.73;98.58;94351.41;5033523;28;20629;-85
2023/06/13 00:16:00;;;;;;;6.72;5.13;;;;;;;17.68;98.80;94327.47;5033777;28;20298;-86
2023/06/13 00:18:29;;;;;;;8.57;4.47;;;;;;;17.53;98.87;94298.16;5032133;28;20176;-85
2023/06/13 00:20:55;;;;;;;5.28;4.65;;;;;;;17.63;99.29;94300.06;5032100;28;20566;-87
2023/06/13 00:23:22;;;;;;;7.18;5.25;;;;;;;17.86;99.28;94334.09;5033336;28;20168;-86
2023/06/13 00:25:47;;;;;;;9.63;5.05;;;;;;;17.67;98.57;94301.09;5033535;28;20666;-86
2023/06/13 00:28:12;;;;;;;5.93;4.75;;;;;;;17.69;98.80;94297.13;5033245;28;20160;-86
2023/06/13 00:30:38;;;;;;;5.68;4.07;;;;;;;17.66;99.23;94287.00;5033192;28;20285;-86
2023/06/13 00:33:04;;;;;;;6.57;4.75;;;;;;;17.75;98.69;94318.41;5032886;28;20213;-86
2023/06/13 00:35:30;;;;;;;6.50;5.03;;;;;;;17.79;98.54;94320.25;5033294;28;20218;-86
2023/06/13 00:37:56;;;;;;;7.15;4.70;;;;;;;17.88;98.96;94331.16;5026908;28;20183;-86
2023/06/13 00:40:23;;;;;;;6.47;4.70;;;;;;;17.91;99.24;94336.75;5023493;28;20184;-86
2023/06/13 00:42:52;;;;;;;18.88;12.57;;;;;;;17.90;99.93;94327.16;5019753;28;20246;-86
2023/06/13 00:45:24;;;;;;;57.47;35.15;;;;;;;17.89;100.00;94330.13;5020729;28;20624;-86
2023/06/13 00:48:02;;;;;;;34.30;21.52;;;;;;;17.90;100.00;94323.72;5022511;28;20242;-86
2023/06/13 00:50:40;;;;;;;9.80;6.22;;;;;;;17.89;100.00;94324.78;5028106;28;20175;-86
2023/06/13 00:53:16;;;;;;;17.38;9.98;;;;;;;17.77;100.00;94302.94;5032685;28;20200;-86
2023/06/13 00:55:42;;;;;;;19.90;12.63;;;;;;;17.78;100.00;94320.53;5033078;28;20159;-86
2023/06/13 00:58:10;;;;;;;34.83;19.42;;;;;;;17.66;100.00;94315.47;5031682;28;20181;-86
2023/06/13 01:00:39;;;;;;;21.38;14.18;;;;;;;17.66;100.00;94313.63;5032594;28;20164;-86
2023/06/13 01:03:14;;;;;;;14.75;10.75;;;;;;;17.76;100.00;94320.00;5031264;28;20175;-86
2023/06/13 01:05:40;;;;;;;16.95;8.73;;;;;;;17.76;100.00;94312.81;5032634;28;20167;-86
2023/06/13 01:08:09;;;;;;;13.05;8.07;;;;;;;17.74;100.00;94304.28;5037890;28;20271;-86
2023/06/13 01:10:36;;;;;;;24.67;13.55;;;;;;;17.85;100.00;94318.38;5011634;28;20592;-86
2023/06/13 01:13:43;;;;;;;12.27;7.15;;;;;;;17.88;100.00;94315.19;5003286;28;20208;-86
2023/06/13 01:16:15;;;;;;;11.48;7.18;;;;;;;17.88;100.00;94321.31;5013631;28;20191;-85
2023/06/13 01:18:43;;;;;;;13.90;7.97;;;;;;;17.89;100.00;94322.13;5011341;28;20616;-85
2023/06/13 01:21:10;;;;;;;10.40;7.68;;;;;;;17.90;100.00;94323.72;5014729;28;20199;-85
2023/06/13 01:23:52;;;;;;;8.30;5.93;;;;;;;17.60;100.00;94300.56;5021473;28;20442;-84
2023/06/13 01:26:52;;;;;;;15.65;8.60;;;;;;;17.70;100.00;94324.53;5019349;28;20489;-85
2023/06/13 01:29:19;;;;;;;28.00;17.25;;;;;;;17.69;100.00;94310.44;5019171;28;20182;-85
2023/06/13 01:31:56;;;;;;;30.95;18.23;;;;;;;17.83;100.00;94328.50;5030715;28;20331;-85
2023/06/13 01:34:24;;;;;;;9.98;6.78;;;;;;;17.80;100.00;94329.06;5032060;28;20213;-85
2023/06/13 01:36:50;;;;;;;10.80;6.95;;;;;;;17.79;100.00;94327.44;5030829;28;20618;-85
2023/06/13 01:39:15;;;;;;;12.75;7.78;;;;;;;17.76;100.00;94314.66;5047416;28;20175;-85
2023/06/13 01:41:40;;;;;;;20.27;12.23;;;;;;;17.87;100.00;94329.56;5032031;28;20226;-85
2023/06/13 01:44:06;;;;;;;18.42;11.05;;;;;;;17.79;100.00;94306.94;5032091;28;20184;-85
2023/06/13 01:46:51;;;;;;;14.70;8.95;;;;;;;17.97;100.00;94324.22;5032005;28;20213;-85
2023/06/13 01:49:43;;;;;;;11.73;7.72;;;;;;;17.85;99.92;94311.19;5030554;28;20175;-86
2023/06/13 01:52:33;;;;;;;13.75;7.45;;;;;;;17.95;99.43;94321.03;5032043;28;20683;-85
2023/06/13 01:55:14;;;;;;;9.45;6.80;;;;;;;17.95;99.36;94321.84;5031968;28;20160;-85
2023/06/13 01:57:43;;;;;;;9.00;6.50;;;;;;;17.94;99.09;94320.22;5032110;28;20955;-85
2023/06/13 02:00:13;;;;;;;7.07;5.30;;;;;;;17.77;99.08;94297.63;5034821;28;20180;-85
2023/06/13 02:02:40;;;;;;;12.45;6.13;;;;;;;17.71;99.07;94310.97;5035903;28;20178;-85
2023/06/13 02:05:08;;;;;;;6.20;5.38;;;;;;;17.47;99.12;94280.59;5035929;28;20207;-85
2023/06/13 02:07:36;;;;;;;10.75;6.45;;;;;;;17.55;99.30;94304.03;5036168;28;20168;-85
2023/06/13 02:10:05;;;;;;;10.52;6.25;;;;;;;17.57;99.30;94309.84;5050858;28;20412;-85
2023/06/13 02:12:31;;;;;;;7.95;6.45;;;;;;;17.56;98.90;94310.13;5035672;28;20199;-89
2023/06/13 02:14:56;;;;;;;9.27;4.90;;;;;;;17.35;99.23;94286.19;5051100;28;20182;-85
2023/06/13 02:17:23;;;;;;;16.42;10.07;;;;;;;17.53;98.96;94323.97;5035588;28;20176;-85
2023/06/13 02:19:49;;;;;;;11.68;7.95;;;;;;;17.39;99.25;94315.72;5034304;28;20234;-85
2023/06/13 02:22:14;;;;;;;23.02;8.60;;;;;;;17.15;99.52;94288.03;5035873;28;20164;-85
2023/06/13 02:24:41;;;;;;;14.10;10.13;;;;;;;17.13;100.00;94308.78;5034428;28;20805;-85
2023/06/13 02:27:06;;;;;;;13.02;9.90;;;;;;;17.05;100.00;94288.84;5034253;28;20176;-85
2023/06/13 02:29:33;;;;;;;11.82;8.52;;;;;;;17.01;99.88;94300.28;5035700;28;20539;-85
2023/06/13 02:31:59;;;;;;;14.68;9.88;;;;;;;16.88;100.00;94302.38;5050613;28;20772;-85
2023/06/13 02:34:25;;;;;;;19.10;12.00;;;;;;;17.08;99.95;94330.88;5050740;28;20254;-85
2023/06/13 02:36:50;;;;;;;16.75;11.52;;;;;;;17.06;99.45;94308.25;5034030;28;20178;-84
2023/06/13 02:39:16;;;;;;;21.60;14.00;;;;;;;16.95;99.53;94292.28;5035102;28;20437;-85
2023/06/13 02:41:41;;;;;;;24.95;16.08;;;;;;;17.16;99.46;94330.34;5033918;28;20615;-86
2023/06/13 02:44:06;;;;;;;21.00;14.85;;;;;;;17.17;99.51;94331.94;5035180;28;20203;-86
2023/06/13 02:46:32;;;;;;;21.00;15.40;;;;;;;17.17;99.22;94325.81;5035132;28;20617;-85
2023/06/13 02:48:57;;;;;;;19.13;14.60;;;;;;;16.84;99.32;94280.06;5028662;28;20176;-85
2023/06/13 02:51:22;;;;;;;30.58;16.05;;;;;;;17.11;99.16;94314.38;5027302;28;20253;-86
2023/06/13 02:53:48;;;;;;;21.63;15.43;;;;;;;17.10;98.98;94312.00;5023041;28;20168;-85
2023/06/13 02:56:13;;;;;;;23.80;15.82;;;;;;;17.14;98.94;94316.50;5020224;28;20183;-85
2023/06/13 02:58:39;;;;;;;21.48;14.38;;;;;;;17.04;98.44;94305.84;5016753;28;20599;-83
2023/06/13 03:01:05;;;;;;;22.40;14.63;;;;;;;16.90;98.11;94286.16;5015225;28;20302;-85
2023/06/13 03:03:33;;;;;;;16.98;11.18;;;;;;;17.16;98.38;94334.88;5015020;28;20180;-85
2023/06/13 03:05:59;;;;;;;23.27;12.10;;;;;;;17.15;99.23;94343.91;5015054;28;20251;-85
2023/06/13 03:08:26;;;;;;;15.93;9.45;;;;;;;16.94;99.36;94306.66;5014935;28;20176;-85
2023/06/13 03:10:52;;;;;;;12.25;7.18;;;;;;;16.90;99.46;94313.56;5012995;28;20168;-86
2023/06/13 03:13:18;;;;;;;16.60;8.00;;;;;;;17.07;99.26;94350.53;5013613;28;20174;-86
2023/06/13 03:15:47;;;;;;;14.05;8.77;;;;;;;17.12;99.61;94347.91;5014799;28;20176;-85
2023/06/13 03:18:16;;;;;;;9.52;7.30;;;;;;;17.04;100.00;94329.00;5015122;28;20219;-85
2023/06/13 03:20:47;;;;;;;10.50;6.55;;;;;;;17.06;100.00;94334.84;5014637;28;20183;-85
2023/06/13 03:23:16;;;;;;;12.23;6.55;;;;;;;17.11;100.00;94337.53;5015256;28;20160;-86
2023/06/13 03:25:42;;;;;;;9.70;6.50;;;;;;;17.29;100.00;94355.66;5013588;28;20247;-84
2023/06/13 03:28:08;;;;;;;8.95;6.80;;;;;;;17.34;100.00;94353.78;5014634;28;20157;-83
2023/06/13 03:30:34;;;;;;;12.18;6.97;;;;;;;17.38;100.00;94347.94;5014524;28;20565;-85
2023/06/13 03:33:00;;;;;;;10.02;6.93;;;;;;;17.14;99.40;94303.19;5019774;28;20292;-85
2023/06/13 03:35:25;;;;;;;11.75;6.72;;;;;;;17.02;99.22;94291.25;5025667;28;20259;-84
2023/06/13 03:37:51;;;;;;;11.03;7.97;;;;;;;17.12;99.83;94344.44;5022890;28;20414;-84
2023/06/13 03:40:16;;;;;;;9.93;7.53;;;;;;;16.84;99.90;94308.50;5021881;28;20175;-84
2023/06/13 03:42:42;;;;;;;11.35;9.18;;;;;;;16.78;100.00;94336.09;5020639;28;20408;-83
2023/06/13 03:45:07;;;;;;;9.45;7.22;;;;;;;16.74;100.00;94346.47;5027986;28;20741;-85
2023/06/13 03:47:33;;;;;;;8.60;6.97;;;;;;;16.94;100.00;94351.06;5033799;28;20172;-85
2023/06/13 03:49:58;;;;;;;12.77;8.73;;;;;;;16.87;100.00;94327.34;5016975;28;20516;-86
2023/06/13 03:52:23;;;;;;;12.68;8.65;;;;;;;17.02;100.00;94333.78;5014013;28;20230;-84
2023/06/13 03:54:49;;;;;;;12.35;7.15;;;;;;;17.18;100.00;94357.50;5014302;28;20258;-84
2023/06/13 03:57:14;;;;;;;10.20;8.57;;;;;;;17.16;100.00;94345.50;5014033;28;20169;-84
2023/06/13 03:59:40;;;;;;;10.95;8.55;;;;;;;17.21;100.00;94342.88;5012790;28;20222;-84
2023/06/13 04:02:05;;;;;;;13.57;8.70;;;;;;;17.37;100.00;94360.44;5017367;28;20664;-84
2023/06/13 04:04:32;;;;;;;14.43;8.80;;;;;;;17.25;100.00;94343.91;5024192;28;20207;-84
2023/06/13 04:06:57;;;;;;;12.63;8.93;;;;;;;17.28;100.00;94354.03;5022993;28;20168;-84
2023/06/13 04:09:23;;;;;;;13.38;8.63;;;;;;;17.14;100.00;94324.47;5024558;28;20176;-84
2023/06/13 04:11:49;;;;;;;18.75;8.82;;;;;;;17.41;99.88;94368.69;5033386;28;20199;-84
2023/06/13 04:14:14;;;;;;;13.20;8.73;;;;;;;17.53;99.22;94362.03;5033641;28;20156;-84
2023/06/13 04:16:40;;;;;;;12.50;9.10;;;;;;;17.52;98.97;94349.78;5043992;28;20172;-84
2023/06/13 04:19:07;;;;;;;12.50;8.93;;;;;;;17.70;98.31;94372.47;5028511;28;20168;-84
2023/06/13 04:21:32;;;;;;;14.35;8.77;;;;;;;17.76;98.12;94376.72;5021533;28;20649;-84
2023/06/13 04:23:57;;;;;;;14.73;8.95;;;;;;;17.76;98.26;94362.59;5022100;28;20172;-84
2023/06/13 04:26:23;;;;;;;13.48;8.32;;;;;;;17.89;98.16;94378.03;5020969;28;20178;-81
2023/06/13 04:28:50;;;;;;;14.73;8.90;;;;;;;17.96;98.41;94373.25;5020405;28;20172;-82
2023/06/13 04:31:17;;;;;;;14.52;10.73;;;;;;;18.03;98.19;94373.75;5023777;28;20242;-85
2023/06/13 04:33:44;;;;;;;12.80;10.10;;;;;;;17.96;97.30;94347.41;5020570;28;20173;-86
2023/06/13 04:36:12;;;;;;;12.82;10.00;;;;;;;18.27;98.11;94381.97;5012089;28;20172;-84
2023/06/13 04:38:39;;;;;;;16.23;10.40;;;;;;;18.30;98.23;94374.25;5013258;28;20195;-84
2023/06/13 04:41:09;;;;;;;12.40;9.40;;;;;;;18.35;98.15;94360.91;5013303;28;20240;-84
2023/06/13 04:43:38;;;;;;;13.80;9.43;;;;;;;18.56;97.75;94390.97;5011897;28;20551;-83
2023/06/13 04:46:04;;;;;;;15.75;10.48;;;;;;;18.65;97.22;94389.38;5012980;28;20156;-84
2023/06/13 04:48:30;;;;;;;14.75;10.43;;;;;;;18.73;96.77;94385.34;5012915;28;20670;-83
2023/06/13 04:50:59;;;;;;;15.77;10.80;;;;;;;18.93;95.94;94389.78;5012124;28;20160;-83
2023/06/13 04:53:28;;;;;;;21.63;10.32;;;;;;;19.01;94.79;94375.88;5011712;28;20776;-84
2023/06/13 04:55:54;;;;;;;16.15;11.38;;;;;;;19.18;92.79;94395.81;5011601;28;20176;-84
2023/06/13 04:58:19;;;;;;;15.10;10.25;;;;;;;19.34;92.17;94393.84;5012884;28;20168;-84
2023/06/13 05:00:48;;;;;;;22.63;11.07;;;;;;;19.31;91.64;94364.22;5012775;28;20251;-84
2023/06/13 05:03:18;;;;;;;13.65;9.77;;;;;;;19.41;90.31;94375.63;5012940;28;20160;-84
2023/06/13 05:05:44;;;;;;;18.02;10.10;;;;;;;19.63;90.29;94404.63;5012763;28;20179;-84
2023/06/13 05:08:13;;;;;;;12.88;9.65;;;;;;;19.69;91.52;94408.84;5011584;28;20168;-84
2023/06/13 05:10:41;;;;;;;16.38;9.48;;;;;;;19.61;91.29;94388.06;5012704;28;20165;-84
2023/06/13 05:13:07;;;;;;;15.20;9.25;;;;;;;19.62;91.29;94387.00;5012812;28;20677;-84
2023/06/13 05:15:32;;;;;;;16.17;9.88;;;;;;;19.79;91.77;94407.97;5012772;28;20215;-84
2023/06/13 05:17:58;;;;;;;13.25;9.00;;;;;;;20.02;91.31;94407.25;5012569;28;20172;-84
2023/06/13 05:20:26;;;;;;;13.20;7.35;;;;;;;20.01;87.22;94386.16;5012917;28;20211;-84
2023/06/13 05:22:53;;;;;;;10.88;8.00;;;;;;;20.43;87.31;94406.88;5011236;28;20223;-84
2023/06/13 05:25:22;;;;;;;12.30;8.10;;;;;;;20.79;86.70;94407.31;5012527;28;20195;-84
2023/06/13 05:27:47;;;;;;;18.58;8.55;;;;;;;21.15;84.98;94413.03;5021097;28;20199;-84
2023/06/13 05:30:13;;;;;;;12.13;8.65;;;;;;;21.39;83.13;94385.16;5022508;28;20261;-84
2023/06/13 05:32:39;;;;;;;12.43;8.35;;;;;;;21.71;80.14;94391.63;5023433;28;20216;-84
2023/06/13 05:35:07;;;;;;;12.95;8.85;;;;;;;21.95;79.13;94408.44;5016624;28;20215;-84
2023/06/13 05:37:32;;;;;;;11.07;8.48;;;;;;;22.17;78.14;94423.91;5012846;28;20165;-84
2023/06/13 05:39:58;;;;;;;9.40;7.40;;;;;;;22.24;76.80;94394.03;5012679;28;20219;-84
2023/06/13 05:42:23;;;;;;;10.02;8.07;;;;;;;22.57;75.93;94407.09;5012300;28;20176;-84
2023/06/13 05:44:48;;;;;;;14.07;7.60;;;;;;;22.64;77.17;94384.47;5018090;28;20180;-84
2023/06/13 05:47:14;;;;;;;7.65;6.85;;;;;;;22.99;74.85;94407.16;5023170;28;20648;-84
2023/06/13 05:49:39;;;;;;;8.90;7.20;;;;;;;23.24;76.62;94394.00;5018440;28;20266;-84
2023/06/13 05:52:05;;;;;;;14.75;7.03;;;;;;;23.37;70.39;94423.81;5023370;28;20199;-84
2023/06/13 05:54:31;;;;;;;7.25;6.38;;;;;;;23.35;70.27;94432.19;5031977;28;20178;-84
2023/06/13 05:56:57;;;;;;;12.30;6.93;;;;;;;23.26;70.09;94407.13;5031920;28;20156;-84
2023/06/13 05:59:22;;;;;;;10.40;6.40;;;;;;;22.98;70.84;94403.69;5032395;28;20164;-84
2023/06/13 06:01:49;;;;;;;10.75;6.28;;;;;;;23.39;72.41;94424.31;5031665;28;20182;-84
2023/06/13 06:04:14;;;;;;;11.07;6.57;;;;;;;23.52;72.22;94431.59;5028807;28;20219;-84
2023/06/13 06:06:40;;;;;;;7.43;5.88;;;;;;;23.59;67.94;94427.41;5016846;28;20196;-83
2023/06/13 06:09:05;;;;;;;9.00;6.20;;;;;;;23.48;67.90;94409.06;5020683;28;20176;-84
2023/06/13 06:11:31;;;;;;;6.35;5.35;;;;;;;23.46;69.18;94409.38;5022117;28;20199;-84
2023/06/13 06:13:57;;;;;;;15.93;5.85;;;;;;;23.20;69.57;94390.31;5012644;28;20187;-84
2023/06/13 06:16:22;;;;;;;7.88;5.47;;;;;;;23.23;68.48;94423.84;5012020;28;20177;-84
2023/06/13 06:18:48;;;;;;;7.63;5.22;;;;;;;23.00;72.26;94381.91;5012042;28;20645;-84
2023/06/13 06:21:14;;;;;;;6.55;5.20;;;;;;;23.14;69.58;94404.16;5011977;28;20276;-84
2023/06/13 06:23:42;;;;;;;6.93;5.28;;;;;;;23.11;68.68;94427.03;5011998;28;20246;-84
2023/06/13 06:26:10;;;;;;;5.30;4.28;;;;;;;22.51;69.71;94399.44;5012002;28;20191;-84
2023/06/13 06:28:35;;;;;;;4.35;3.35;;;;;;;22.50;68.93;94409.38;5016061;28;20240;-84
2023/06/13 06:31:01;;;;;;;7.07;3.78;;;;;;;22.81;70.00;94417.69;5021657;28;20991;-85
2023/06/13 06:33:29;;;;;;;5.30;3.63;;;;;;;22.88;70.20;94419.97;5020261;28;20179;-84
2023/06/13 06:35:55;;;;;;;4.60;3.90;;;;;;;22.66;69.12;94422.53;5026880;28;20182;-84
2023/06/13 06:38:21;;;;;;;3.63;3.28;;;;;;;22.45;70.83;94404.13;5031548;28;20168;-84
2023/06/13 06:40:46;;;;;;;8.23;5.97;;;;;;;22.45;71.72;94403.31;5031495;28;20164;-85
2023/06/13 06:43:11;;;;;;;7.38;5.82;;;;;;;22.44;74.14;94396.34;5020172;28;20677;-85
2023/06/13 06:45:37;;;;;;;10.32;7.25;;;;;;;22.36;74.80;94394.34;5019946;28;20266;-84
2023/06/13 06:48:03;;;;;;;11.35;7.65;;;;;;;22.27;75.94;94407.66;5024948;28;20180;-85
2023/06/13 06:50:29;;;;;;;11.07;7.32;;;;;;;21.91;75.76;94380.59;5028185;28;20164;-82
2023/06/13 06:52:54;;;;;;;7.63;6.82;;;;;;;21.93;76.04;94385.69;5030788;28;20568;-82
2023/06/13 06:55:20;;;;;;;13.25;7.70;;;;;;;22.06;76.25;94407.19;5028316;28;20177;-83
2023/06/13 06:57:45;;;;;;;11.98;7.00;;;;;;;21.79;75.90;94385.63;5025779;28;20196;-86
2023/06/13 07:00:14;;;;;;;16.25;7.85;;;;;;;21.59;77.02;94370.66;5023189;28;20263;-85
2023/06/13 07:02:43;;;;;;;14.70;7.32;;;;;;;22.01;79.67;94385.84;5050140;28;20178;-82
2023/06/13 07:05:09;;;;;;;11.93;7.68;;;;;;;22.57;80.10;94412.47;5035101;28;20164;-83
2023/06/13 07:07:35;;;;;;;9.57;6.95;;;;;;;22.73;75.37;94396.09;5033430;28;20707;-83
2023/06/13 07:10:04;;;;;;;20.65;7.63;;;;;;;23.23;78.48;94407.72;5034607;28;20160;-83
2023/06/13 07:12:32;;;;;;;13.70;7.32;;;;;;;23.50;72.59;94388.09;5022916;28;20187;-83
2023/06/13 07:14:58;;;;;;;11.00;6.60;;;;;;;23.86;73.59;94390.78;5022636;28;20555;-83
2023/06/13 07:17:23;;;;;;;10.25;6.10;;;;;;;24.11;71.55;94417.06;5027629;28;20233;-82
2023/06/13 07:19:48;;;;;;;10.45;7.13;;;;;;;24.00;67.99;94427.25;5020262;28;20184;-82
2023/06/13 07:22:14;;;;;;;10.82;7.00;;;;;;;23.61;68.62;94419.81;5014727;28;20180;-83
2023/06/13 07:24:39;;;;;;;9.82;7.03;;;;;;;23.37;70.59;94395.06;5013290;28;20571;-83
2023/06/13 07:27:06;;;;;;;13.95;7.00;;;;;;;23.39;73.38;94395.56;5014738;28;20168;-82
2023/06/13 07:29:31;;;;;;;7.30;6.03;;;;;;;23.28;72.81;94391.50;5014476;28;20176;-83
2023/06/13 07:31:57;;;;;;;9.30;6.15;;;;;;;23.16;74.02;94365.16;5024503;28;20219;-82
2023/06/13 07:34:22;;;;;;;16.17;10.80;;;;;;;23.19;72.68;94374.50;5015981;28;20250;-83
2023/06/13 07:36:48;;;;;;;8.55;6.80;;;;;;;23.36;71.41;94398.03;5016581;28;21024;-82
2023/06/13 07:39:14;;;;;;;11.82;6.88;;;;;;;23.24;70.34;94401.25;5027296;28;20164;-83
2023/06/13 07:41:40;;;;;;;13.40;8.27;;;;;;;22.97;69.67;94387.84;5023688;28;20184;-84
2023/06/13 07:44:06;;;;;;;10.73;7.20;;;;;;;22.93;72.37;94393.81;5025724;28;20644;-85
2023/06/13 07:46:32;;;;;;;7.95;6.00;;;;;;;22.93;72.91;94399.19;5021592;28;20179;-85
2023/06/13 07:48:59;;;;;;;10.50;5.88;;;;;;;22.89;72.35;94406.25;5014265;28;20545;-86
2023/06/13 07:51:24;;;;;;;14.52;10.38;;;;;;;22.82;74.32;94395.13;5014458;28;20258;-85
2023/06/13 07:53:50;;;;;;;17.42;11.32;;;;;;;22.86;74.89;94404.16;5014468;28;20168;-83
2023/06/13 07:56:16;;;;;;;19.02;11.43;;;;;;;22.58;72.58;94370.31;5023652;28;20251;-82
2023/06/13 07:58:41;;;;;;;16.30;10.82;;;;;;;22.62;74.18;94387.44;5022638;28;20274;-82
2023/06/13 08:01:07;;;;;;;9.18;7.15;;;;;;;22.34;73.64;94375.88;5021048;28;20185;-82
2023/06/13 08:03:34;;;;;;;9.68;8.07;;;;;;;22.16;74.10;94358.75;5020405;28;20196;-82
2023/06/13 08:06:00;;;;;;;12.18;10.23;;;;;;;22.34;76.09;94402.69;5025802;28;20204;-82
2023/06/13 08:08:26;;;;;;;13.63;8.68;;;;;;;22.25;77.00;94379.53;5028000;28;20171;-82
2023/06/13 08:10:51;;;;;;;9.35;6.97;;;;;;;22.40;77.39;94400.75;5020041;28;20179;-82
2023/06/13 08:13:16;;;;;;;18.60;14.10;;;;;;;22.50;76.96;94392.47;5013699;28;20204;-84
2023/06/13 08:15:42;;;;;;;23.55;13.90;;;;;;;22.54;76.88;94391.59;5013660;28;20161;-85
2023/06/13 08:18:07;;;;;;;9.43;8.07;;;;;;;22.24;76.94;94341.19;5016007;28;20172;-86
2023/06/13 08:20:32;;;;;;;12.43;9.73;;;;;;;22.46;75.34;94370.84;5025916;28;21121;-85
2023/06/13 08:22:59;;;;;;;10.23;7.35;;;;;;;22.64;76.65;94395.19;5022921;28;20178;-83
2023/06/13 08:25:25;;;;;;;9.52;7.40;;;;;;;22.71;76.42;94392.91;5020967;28;20187;-83
2023/06/13 08:27:52;;;;;;;8.45;6.72;;;;;;;22.58;73.58;94383.75;5014668;28;20563;-83
2023/06/13 08:30:18;;;;;;;14.43;9.70;;;;;;;22.51;75.95;94369.94;5012024;28;20685;-81
2023/06/13 08:32:46;;;;;;;11.40;7.05;;;;;;;22.43;73.82;94363.38;5012858;28;20231;-84
2023/06/13 08:35:12;;;;;;;9.23;7.25;;;;;;;22.52;73.20;94382.25;5013255;28;20230;-87
2023/06/13 08:37:38;;;;;;;10.15;7.05;;;;;;;22.49;73.25;94391.69;5019450;28;20267;-84
2023/06/13 08:40:09;;;;;;;8.85;6.45;;;;;;;22.30;72.07;94390.97;5020379;28;20222;-82
2023/06/13 08:42:36;;;;;;;11.88;7.28;;;;;;;21.89;73.01;94374.72;5015806;28;20179;-82
2023/06/13 08:45:01;;;;;;;9.15;6.85;;;;;;;21.51;72.96;94341.06;5024251;28;20204;-85
2023/06/13 08:47:28;;;;;;;7.30;6.05;;;;;;;21.59;75.50;94367.19;5020441;28;20199;-83
2023/06/13 08:49:53;;;;;;;9.52;7.38;;;;;;;21.58;74.59;94374.44;5019601;28;20181;-83
2023/06/13 08:52:20;;;;;;;23.90;15.70;;;;;;;21.51;75.12;94382.03;5022566;28;20759;-85
2023/06/13 08:54:53;;;;;;;12.05;8.98;;;;;;;21.18;77.38;94343.69;5026245;28;20251;-86
2023/06/13 08:57:21;;;;;;;14.30;8.32;;;;;;;21.41;76.34;94374.16;5023218;28;20409;-82
2023/06/13 08:59:49;;;;;;;13.40;7.35;;;;;;;21.51;75.67;94390.06;5021837;28;20171;-84
2023/06/13 09:02:23;;;;;;;14.40;7.60;;;;;;;21.30;76.82;94362.78;5019014;28;20168;-84
2023/06/13 09:04:51;;;;;;;11.25;7.60;;;;;;;21.46;76.48;94398.97;5022426;28;20191;-82
2023/06/13 09:07:16;;;;;;;8.38;5.95;;;;;;;21.43;77.96;94386.16;5021135;28;20650;-83
2023/06/13 09:09:42;;;;;;;11.23;5.97;;;;;;;21.45;78.07;94389.34;5020551;28;20179;-85
2023/06/13 09:12:11;;;;;;;9.30;5.90;;;;;;;21.31;78.84;94368.94;5022245;28;20202;-82
2023/06/13 09:14:37;;;;;;;6.35;4.97;;;;;;;21.31;78.11;94363.56;5022995;28;20176;-84
2023/06/13 09:17:03;;;;;;;8.30;4.75;;;;;;;21.50;78.36;94396.50;5021090;28;20168;-84
2023/06/13 09:19:28;;;;;;;6.55;4.30;;;;;;;21.20;77.37;94357.56;5018990;28;20270;-83
2023/06/13 09:21:54;;;;;;;12.43;4.85;;;;;;;21.27;78.81;94375.97;5017833;28;20248;-83
2023/06/13 09:24:20;;;;;;;5.85;4.25;;;;;;;21.03;78.64;94351.88;5021840;28;20280;-85
2023/06/13 09:26:45;;;;;;;6.72;4.53;;;;;;;20.93;78.97;94352.03;5021921;28;20175;-84
2023/06/13 09:29:11;;;;;;;6.00;4.28;;;;;;;20.88;79.07;94366.25;5022161;28;20235;-89
2023/06/13 09:31:38;;;;;;;7.22;4.28;;;;;;;21.00;80.21;94406.00;5014081;28;20220;-82
2023/06/13 09:34:05;;;;;;;7.25;4.75;;;;;;;20.68;80.64;94378.00;5010638;28;20439;-84
2023/06/13 09:36:34;;;;;;;6.15;4.22;;;;;;;20.46;82.93;94350.97;5011119;28;20211;-82
2023/06/13 09:39:00;;;;;;;5.68;3.80;;;;;;;20.73;82.07;94400.44;5012701;28;20187;-81
2023/06/13 09:41:26;;;;;;;6.47;4.50;;;;;;;20.32;82.53;94342.03;5011286;28;20230;-84
2023/06/13 09:43:52;;;;;;;6.18;4.22;;;;;;;20.39;82.92;94358.53;5018663;28;20258;-90
2023/06/13 09:46:19;;;;;;;6.63;4.90;;;;;;;20.45;83.40;94375.31;5037790;28;20605;-85
2023/06/13 09:48:45;;;;;;;8.10;5.18;;;;;;;20.53;84.71;94388.88;5019689;28;20175;-86
2023/06/13 09:51:11;;;;;;;6.70;5.10;;;;;;;20.48;85.91;94391.59;5019813;28;20569;-86
2023/06/13 09:53:37;;;;;;;7.00;5.65;;;;;;;20.28;87.45;94349.00;5011199;28;20599;-85
2023/06/13 09:56:02;;;;;;;7.93;6.32;;;;;;;20.40;88.05;94360.16;5011499;28;20724;-86
2023/06/13 09:58:28;;;;;;;8.43;5.53;;;;;;;20.63;86.36;94382.63;5011081;28;20175;-86
2023/06/13 10:00:57;;;;;;;7.35;5.15;;;;;;;20.58;85.92;94364.72;5010920;28;20263;-85
2023/06/13 10:03:23;;;;;;;6.75;5.30;;;;;;;20.49;84.15;94337.06;5012541;28;20160;-83
2023/06/13 10:05:49;;;;;;;7.80;5.80;;;;;;;20.57;84.28;94346.31;5013975;28;20664;-84
2023/06/13 10:08:15;;;;;;;9.75;5.97;;;;;;;20.54;83.32;94341.53;5018351;28;20672;-83
2023/06/13 10:10:41;;;;;;;6.68;5.28;;;;;;;20.83;82.90;94390.41;5027199;28;20165;-85
2023/06/13 10:13:10;;;;;;;6.55;4.72;;;;;;;20.57;84.32;94373.06;5031957;28;20195;-84
2023/06/13 10:15:45;;;;;;;12.88;6.82;;;;;;;20.52;84.81;94373.91;5030613;28;20178;-84
2023/06/13 10:18:15;;;;;;;7.10;6.13;;;;;;;20.38;84.61;94348.13;5022092;28;20629;-84
2023/06/13 10:20:44;;;;;;;11.02;6.18;;;;;;;20.36;84.53;94339.59;5014046;28;20192;-85
2023/06/13 10:23:13;;;;;;;8.05;5.97;;;;;;;20.67;84.26;94381.75;5024819;28;20172;-83
2023/06/13 10:25:39;;;;;;;7.97;5.68;;;;;;;20.65;85.85;94375.09;5024950;28;20172;-84
2023/06/13 10:28:20;;;;;;;9.80;6.03;;;;;;;20.45;85.12;94341.34;5030134;28;20163;-83
2023/06/13 10:31:11;;;;;;;9.25;5.88;;;;;;;20.48;84.97;94358.72;5024110;28;20270;-84
2023/06/13 10:34:18;;;;;;;9.55;6.07;;;;;;;20.54;85.50;94373.63;5025199;28;20199;-84
2023/06/13 10:37:03;;;;;;;7.63;5.68;;;;;;;20.61;86.52;94377.53;5024084;28;20295;-84
2023/06/13 10:39:52;;;;;;;8.23;6.45;;;;;;;20.64;85.89;94378.88;5026490;28;20189;-84
2023/06/13 10:42:43;;;;;;;8.75;6.28;;;;;;;20.53;87.93;94369.34;5025800;28;20227;-83
2023/06/13 10:45:16;;;;;;;7.32;5.38;;;;;;;20.55;84.73;94370.66;5029902;28;20175;-85
2023/06/13 10:47:41;;;;;;;12.52;6.32;;;;;;;20.34;84.74;94343.34;5021498;28;20684;-89
2023/06/13 10:50:08;;;;;;;7.95;5.55;;;;;;;20.37;85.76;94335.84;5015254;28;20185;-88
2023/06/13 10:52:34;;;;;;;8.88;5.45;;;;;;;20.68;84.62;94372.63;5019346;28;20211;-87
2023/06/13 10:55:01;;;;;;;7.63;5.72;;;;;;;20.75;85.47;94366.97;5023900;28;20249;-88
2023/06/13 10:58:01;;;;;;;10.40;5.85;;;;;;;20.89;86.11;94356.34;5024114;28;20175;-88
2023/06/13 11:00:29;;;;;;;7.05;6.00;;;;;;;20.62;85.71;94301.56;4975328;28;20203;-89
2023/06/13 11:03:13;;;;;;;8.38;5.70;;;;;;;21.05;85.02;94347.03;5040713;28;20172;-88
2023/06/13 11:05:44;;;;;;;8.02;6.05;;;;;;;21.27;82.36;94363.38;5012972;28;20732;-88
2023/06/13 11:08:21;;;;;;;8.45;6.15;;;;;;;21.24;81.51;94365.81;5014460;28;20195;-88
2023/06/13 11:10:48;;;;;;;10.18;6.60;;;;;;;21.31;83.79;94369.72;5014476;28;20183;-88
2023/06/13 11:13:25;;;;;;;9.82;5.95;;;;;;;21.36;81.16;94360.84;5014638;28;20578;-88
2023/06/13 11:15:55;;;;;;;14.23;10.20;;;;;;;21.48;81.25;94357.69;5014415;28;20266;-90
2023/06/13 11:18:20;;;;;;;7.65;6.28;;;;;;;21.58;82.14;94360.22;5013625;28;20215;-90
2023/06/13 11:20:57;;;;;;;8.98;6.43;;;;;;;21.57;82.35;94339.88;5014822;28;20188;-90
2023/06/13 11:23:35;;;;;;;10.38;7.50;;;;;;;21.80;83.24;94355.84;5013529;28;20172;-89
2023/06/13 11:26:00;;;;;;;10.07;8.27;;;;;;;21.80;84.50;94344.31;5013124;28;20183;-91
2023/06/13 11:28:26;;;;;;;12.48;7.75;;;;;;;21.78;84.98;94322.41;5022017;28;20172;-90
2023/06/13 11:30:52;;;;;;;16.63;8.55;;;;;;;21.99;83.55;94337.06;5018476;28;20642;-91